createdAt,value
2022-09-03T00:01:31.601Z,1.80
2022-09-03T00:04:11.824Z,2.33
2022-09-03T00:07:03.582Z,1.95
2022-09-03T00:10:03.302Z,1.73
2022-09-03T00:12:53.200Z,1.90
2022-09-03T00:15:29.304Z,2.00
2022-09-03T00:18:20.242Z,2.42
2022-09-03T00:21:08.224Z,2.47
2022-09-03T00:23:56.233Z,2.25
2022-09-03T00:26:41.222Z,1.83
2022-09-03T00:29:41.199Z,2.20
2022-09-03T00:32:54.232Z,1.90
2022-09-03T00:35:44.395Z,2.15
2022-09-03T00:38:33.234Z,1.90
2022-09-03T00:41:21.325Z,1.80
2022-09-03T00:44:24.239Z,1.50
2022-09-03T00:47:14.208Z,1.40
2022-09-03T00:50:02.251Z,1.60
2022-09-03T00:53:25.204Z,1.88
2022-09-03T00:56:31.229Z,1.75
2022-09-03T00:59:40.209Z,1.40
2022-09-03T01:02:33.596Z,1.70
2022-09-03T01:05:25.268Z,2.20
2022-09-03T01:08:42.254Z,2.28
2022-09-03T01:11:28.067Z,1.75
2022-09-03T01:15:01.277Z,1.90
2022-09-03T01:17:54.008Z,1.83
2022-09-03T01:21:12.257Z,1.70
2022-09-03T01:24:05.246Z,2.38
2022-09-03T01:27:21.266Z,3.28
2022-09-03T01:30:09.190Z,4.40
2022-09-03T01:32:56.223Z,3.67
2022-09-03T01:35:56.253Z,3.35
2022-09-03T01:39:03.238Z,3.47
2022-09-03T01:42:28.258Z,3.70
2022-09-03T01:45:13.354Z,3.65
2022-09-03T01:48:17.247Z,4.50
2022-09-03T01:51:00.421Z,3.67
2022-09-03T01:54:06.270Z,3.03
2022-09-03T01:56:45.332Z,2.97
2022-09-03T01:59:39.271Z,3.25
2022-09-03T02:02:20.223Z,2.40
2022-09-03T02:05:09.267Z,2.08
2022-09-03T02:07:54.260Z,2.40
2022-09-03T02:11:09.257Z,2.10
2022-09-03T02:14:02.288Z,1.75
2022-09-03T02:16:39.035Z,1.92
2022-09-03T02:19:26.290Z,2.15
2022-09-03T02:22:02.360Z,2.25
2022-09-03T02:24:49.254Z,1.38
2022-09-03T02:27:30.278Z,1.60
2022-09-03T02:30:25.269Z,1.60
2022-09-03T02:33:12.270Z,1.80
2022-09-03T02:35:47.200Z,1.80
2022-09-03T02:38:35.287Z,1.88
2022-09-03T02:41:09.378Z,2.25
2022-09-03T02:44:19.267Z,2.00
2022-09-03T02:47:00.410Z,2.05
2022-09-03T02:49:47.288Z,1.85
2022-09-03T02:52:22.351Z,1.60
2022-09-03T02:55:09.264Z,1.92
2022-09-03T02:57:43.338Z,2.38
2022-09-03T03:00:30.293Z,2.30
2022-09-03T03:03:11.267Z,1.88
2022-09-03T03:06:08.312Z,2.10
2022-09-03T03:08:56.302Z,2.03
2022-09-03T03:11:30.606Z,2.03
2022-09-03T03:14:17.290Z,1.70
2022-09-03T03:16:51.545Z,1.60
2022-09-03T03:19:38.291Z,1.88
2022-09-03T03:22:12.357Z,2.42
2022-09-03T03:24:59.297Z,1.80
2022-09-03T03:27:33.390Z,1.92
2022-09-03T03:30:20.287Z,1.80
2022-09-03T03:33:01.320Z,1.70
2022-09-03T03:35:55.281Z,1.67
2022-09-03T03:38:43.310Z,1.42
2022-09-03T03:41:26.348Z,1.88
2022-09-03T03:44:14.350Z,1.30
2022-09-03T03:46:48.384Z,1.05
2022-09-03T03:49:35.302Z,1.70
2022-09-03T03:52:09.404Z,1.23
2022-09-03T03:54:56.323Z,1.88
2022-09-03T03:57:30.388Z,1.63
2022-09-03T04:00:18.331Z,1.58
2022-09-03T04:02:52.727Z,1.65
2022-09-03T04:05:46.143Z,1.70
2022-09-03T04:08:36.301Z,1.55
2022-09-03T04:11:12.178Z,1.55
2022-09-03T04:14:01.314Z,1.70
2022-09-03T04:16:35.802Z,1.40
2022-09-03T04:19:23.344Z,1.38
2022-09-03T04:21:57.376Z,1.95
2022-09-03T04:24:45.342Z,1.67
2022-09-03T04:27:19.269Z,1.75
2022-09-03T04:30:07.323Z,1.65
2022-09-03T04:32:53.558Z,2.10
2022-09-03T04:35:41.368Z,2.10
2022-09-03T04:38:21.346Z,1.75
2022-09-03T04:41:02.436Z,1.75
2022-09-03T04:43:43.336Z,2.22
2022-09-03T04:46:26.110Z,2.13
2022-09-03T04:49:07.343Z,2.25
2022-09-03T04:51:48.406Z,2.40
2022-09-03T04:54:29.509Z,2.15
2022-09-03T04:57:10.528Z,1.98
2022-09-03T04:59:57.309Z,1.80
2022-09-03T05:02:53.343Z,1.50
2022-09-03T05:05:41.329Z,1.40
2022-09-03T05:08:29.374Z,1.30
2022-09-03T05:11:13.333Z,1.55
2022-09-03T05:14:05.319Z,1.77
2022-09-03T05:16:39.087Z,1.40
2022-09-03T05:19:33.334Z,2.00
2022-09-03T05:22:30.335Z,2.00
2022-09-03T05:25:17.338Z,1.58
2022-09-03T05:27:51.807Z,1.60
2022-09-03T05:30:38.359Z,1.52
2022-09-03T05:33:19.472Z,1.38
2022-09-03T05:36:00.356Z,2.55
2022-09-03T05:38:41.396Z,1.73
2022-09-03T05:41:23.372Z,1.88
2022-09-03T05:44:12.348Z,1.30
2022-09-03T05:47:07.357Z,1.40
2022-09-03T05:49:54.373Z,1.42
2022-09-03T05:52:28.431Z,1.30
2022-09-03T05:55:15.367Z,0.98
2022-09-03T05:57:49.410Z,1.40
2022-09-03T06:00:36.394Z,1.10
2022-09-03T06:03:10.562Z,0.88
2022-09-03T06:05:58.341Z,1.05
2022-09-03T06:08:32.619Z,0.90
2022-09-03T06:11:19.381Z,0.90
2022-09-03T06:13:53.528Z,1.10
2022-09-03T06:16:43.536Z,0.63
2022-09-03T06:19:25.366Z,0.90
2022-09-03T06:22:19.338Z,0.68
2022-09-03T06:25:06.362Z,1.00
2022-09-03T06:27:47.380Z,0.98
2022-09-03T06:30:34.363Z,0.55
2022-09-03T06:33:08.949Z,0.80
2022-09-03T06:35:55.384Z,0.88
2022-09-03T06:38:29.475Z,0.70
2022-09-03T06:41:21.378Z,0.90
2022-09-03T06:43:55.826Z,0.75
2022-09-03T06:46:45.411Z,0.60
2022-09-03T06:49:20.200Z,0.85
2022-09-03T06:52:07.358Z,0.80
2022-09-03T06:54:41.459Z,1.10
2022-09-03T06:57:28.379Z,0.80
2022-09-03T07:00:10.397Z,0.70
2022-09-03T07:03:10.382Z,0.70
2022-09-03T07:05:57.441Z,1.02
2022-09-03T07:08:39.386Z,0.88
2022-09-03T07:11:35.366Z,1.05
2022-09-03T07:14:27.393Z,1.10
2022-09-03T07:17:08.399Z,0.90
2022-09-03T07:20:02.416Z,1.30
2022-09-03T07:22:49.396Z,1.23
2022-09-03T07:25:30.407Z,1.02
2022-09-03T07:28:24.474Z,0.90
2022-09-03T07:31:19.440Z,0.88
2022-09-03T07:34:01.397Z,1.00
2022-09-03T07:36:53.395Z,1.10
2022-09-03T07:39:27.515Z,1.02
2022-09-03T07:42:15.393Z,1.10
2022-09-03T07:44:49.504Z,1.08
2022-09-03T07:47:37.408Z,1.25
2022-09-03T07:50:12.459Z,1.20
2022-09-03T07:53:05.408Z,0.90
2022-09-03T07:55:47.432Z,0.95
2022-09-03T07:58:45.417Z,0.80
2022-09-03T08:01:41.710Z,0.93
2022-09-03T08:04:16.490Z,1.00
2022-09-03T08:07:04.409Z,1.00
2022-09-03T08:09:38.640Z,0.85
2022-09-03T08:12:25.441Z,0.85
2022-09-03T08:14:59.714Z,1.02
2022-09-03T08:17:50.442Z,1.10
2022-09-03T08:20:31.425Z,1.00
2022-09-03T08:23:11.920Z,1.10
2022-09-03T08:25:59.421Z,1.30
2022-09-03T08:28:34.362Z,1.05
2022-09-03T08:31:24.446Z,1.10
2022-09-03T08:33:59.708Z,1.13
2022-09-03T08:36:53.434Z,1.10
2022-09-03T08:39:27.179Z,1.10
2022-09-03T08:42:17.431Z,1.00
2022-09-03T08:44:56.135Z,1.00
2022-09-03T08:47:57.421Z,1.08
2022-09-03T08:50:39.327Z,1.05
2022-09-03T08:53:53.437Z,1.00
2022-09-03T08:56:38.432Z,0.77
2022-09-03T08:59:22.139Z,0.80
2022-09-03T09:02:42.560Z,1.15
2022-09-03T09:05:37.516Z,0.90
2022-09-03T09:08:39.452Z,1.17
2022-09-03T09:11:36.446Z,1.00
2022-09-03T09:14:40.890Z,0.85
2022-09-03T09:17:45.481Z,0.80
2022-09-03T09:20:55.338Z,0.95
2022-09-03T09:23:49.459Z,0.80
2022-09-03T09:26:23.023Z,0.90
2022-09-03T09:29:19.459Z,1.50
2022-09-03T09:31:53.559Z,0.95
2022-09-03T09:34:42.478Z,0.95
2022-09-03T09:37:36.460Z,1.00
2022-09-03T09:40:53.467Z,0.82
2022-09-03T09:43:40.459Z,0.82
2022-09-03T09:46:28.565Z,1.05
2022-09-03T09:49:43.461Z,0.75
2022-09-03T09:52:22.212Z,0.90
2022-09-03T09:55:24.493Z,0.73
2022-09-03T09:58:14.512Z,0.90
2022-09-03T10:01:07.554Z,0.90
2022-09-03T10:04:03.474Z,0.90
2022-09-03T10:06:53.882Z,0.88
2022-09-03T10:09:40.485Z,2.28
2022-09-03T10:12:35.704Z,1.08
2022-09-03T10:15:47.570Z,0.90
2022-09-03T10:18:28.697Z,0.77
2022-09-03T10:21:38.496Z,0.90
2022-09-03T10:24:23.602Z,1.02
2022-09-03T10:27:10.499Z,0.90
2022-09-03T10:29:51.490Z,0.70
2022-09-03T10:33:15.468Z,0.90
2022-09-03T10:36:30.488Z,0.80
2022-09-03T10:39:33.583Z,0.90
2022-09-03T10:42:51.495Z,0.70
2022-09-03T10:45:50.528Z,1.00
2022-09-03T10:48:42.638Z,0.77
2022-09-03T10:51:49.776Z,0.90
2022-09-03T10:54:34.857Z,0.93
2022-09-03T10:57:44.510Z,0.80
2022-09-03T11:00:41.510Z,1.00
2022-09-03T11:03:51.518Z,0.70
2022-09-03T11:06:30.617Z,1.10
2022-09-03T11:09:28.500Z,1.58
2022-09-03T11:12:10.567Z,1.00
2022-09-03T11:15:06.510Z,1.00
2022-09-03T11:18:03.499Z,1.05
2022-09-03T11:20:51.502Z,1.15
2022-09-03T11:23:33.506Z,0.80
2022-09-03T11:26:24.514Z,0.90
2022-09-03T11:29:18.377Z,0.88
2022-09-03T11:32:36.519Z,0.70
2022-09-03T11:35:34.511Z,0.98
2022-09-03T11:38:22.488Z,0.77
2022-09-03T11:41:41.509Z,1.02
2022-09-03T11:44:28.506Z,1.00
2022-09-03T11:47:05.585Z,0.90
2022-09-03T11:50:00.502Z,1.10
2022-09-03T11:52:40.596Z,0.80
2022-09-03T11:55:43.574Z,0.90
2022-09-03T11:58:20.730Z,0.80
2022-09-03T12:01:26.521Z,0.90
2022-09-03T12:04:19.566Z,0.98
2022-09-03T12:07:04.717Z,1.00
2022-09-03T12:10:09.528Z,0.80
2022-09-03T12:13:08.955Z,0.70
2022-09-03T12:16:41.519Z,0.73
2022-09-03T12:19:41.356Z,0.68
2022-09-03T12:22:30.546Z,0.80
2022-09-03T12:25:15.132Z,0.50
2022-09-03T12:28:02.524Z,0.98
2022-09-03T12:30:37.715Z,0.75
2022-09-03T12:33:25.661Z,0.77
2022-09-03T12:36:07.547Z,0.70
2022-09-03T12:39:10.381Z,0.70
2022-09-03T12:42:01.545Z,0.95
2022-09-03T12:44:42.701Z,0.90
2022-09-03T12:47:37.341Z,0.80
2022-09-03T12:50:21.642Z,0.77
2022-09-03T12:53:08.547Z,0.73
2022-09-03T12:55:54.105Z,0.60
2022-09-03T12:58:46.570Z,0.80
2022-09-03T13:01:27.830Z,0.90
2022-09-03T13:04:23.566Z,0.80
2022-09-03T13:07:09.618Z,0.70
2022-09-03T13:09:57.559Z,0.70
2022-09-03T13:12:40.630Z,0.80
2022-09-03T13:15:32.535Z,0.70
2022-09-03T13:18:06.635Z,0.90
2022-09-03T13:21:25.555Z,0.88
2022-09-03T13:24:33.578Z,0.80
2022-09-03T13:27:44.336Z,0.88
2022-09-03T13:30:47.608Z,1.00
2022-09-03T13:33:37.924Z,0.82
2022-09-03T13:36:35.579Z,0.60
2022-09-03T13:39:30.624Z,0.88
2022-09-03T13:42:30.590Z,0.68
2022-09-03T13:45:10.265Z,0.90
2022-09-03T13:48:48.564Z,1.45
2022-09-03T13:51:55.565Z,0.82
2022-09-03T13:54:49.090Z,2.85
2022-09-03T13:57:45.564Z,2.40
2022-09-03T14:00:28.706Z,1.17
2022-09-03T14:03:28.635Z,1.52
2022-09-03T14:06:39.560Z,1.40
2022-09-03T14:09:46.561Z,1.20
2022-09-03T14:12:48.583Z,1.50
2022-09-03T14:15:49.030Z,1.30
2022-09-03T14:19:06.655Z,0.90
2022-09-03T14:22:10.608Z,1.30
2022-09-03T14:25:14.668Z,1.67
2022-09-03T14:28:19.601Z,2.75
2022-09-03T14:30:59.655Z,0.93
2022-09-03T14:34:05.582Z,1.35
2022-09-03T14:36:39.675Z,1.13
2022-09-03T14:39:37.632Z,1.92
2022-09-03T14:42:19.662Z,2.30
2022-09-03T14:45:31.630Z,2.92
2022-09-03T14:48:35.743Z,4.03
2022-09-03T14:51:27.588Z,1.98
2022-09-03T14:54:36.970Z,1.95
2022-09-03T14:57:54.600Z,1.23
2022-09-03T15:00:39.236Z,1.80
2022-09-03T15:03:28.611Z,2.88
2022-09-03T15:06:39.583Z,1.48
2022-09-03T15:09:55.590Z,1.90
2022-09-03T15:12:49.621Z,1.10
2022-09-03T15:15:41.609Z,1.20
2022-09-03T15:19:05.588Z,1.50
2022-09-03T15:22:16.621Z,3.92
2022-09-03T15:25:19.600Z,2.20
2022-09-03T15:28:39.597Z,1.67
2022-09-03T15:31:35.793Z,1.88
2022-09-03T15:34:53.611Z,1.98
2022-09-03T15:37:58.605Z,2.38
2022-09-03T15:41:06.605Z,1.92
2022-09-03T15:43:57.620Z,1.88
2022-09-03T15:46:46.740Z,1.90
2022-09-03T15:49:51.629Z,1.40
2022-09-03T15:52:46.670Z,2.13
2022-09-03T15:55:51.592Z,1.40
2022-09-03T15:59:06.635Z,2.38
2022-09-03T16:02:18.347Z,1.50
2022-09-03T16:05:27.641Z,3.03
2022-09-03T16:08:28.688Z,3.03
2022-09-03T16:11:28.636Z,1.63
2022-09-03T16:14:09.653Z,1.70
2022-09-03T16:17:35.637Z,5.78
2022-09-03T16:20:45.628Z,2.78
2022-09-03T16:23:26.643Z,1.30
2022-09-03T16:26:40.639Z,2.10
2022-09-03T16:29:26.111Z,0.90
2022-09-03T16:32:23.662Z,1.00
2022-09-03T16:35:17.652Z,1.45
2022-09-03T16:38:36.639Z,1.00
2022-09-03T16:41:34.642Z,1.48
2022-09-03T16:44:49.690Z,1.25
2022-09-03T16:48:09.660Z,1.02
2022-09-03T16:51:31.678Z,1.90
2022-09-03T16:54:21.654Z,2.03
2022-09-03T16:57:21.630Z,1.50
2022-09-03T17:00:19.677Z,1.10
2022-09-03T17:03:14.651Z,1.30
2022-09-03T17:06:22.725Z,1.45
2022-09-03T17:09:19.650Z,1.40
2022-09-03T17:11:53.734Z,1.80
2022-09-03T17:15:03.678Z,1.83
2022-09-03T17:17:43.790Z,2.20
2022-09-03T17:20:49.574Z,2.40
2022-09-03T17:24:12.696Z,4.15
2022-09-03T17:27:19.677Z,2.15
2022-09-03T17:30:03.679Z,12.80
2022-09-03T17:33:17.668Z,4.72
2022-09-03T17:36:20.690Z,1.40
2022-09-03T17:39:31.694Z,2.92
2022-09-03T17:42:24.666Z,3.17
2022-09-03T17:45:35.693Z,4.45
2022-09-03T17:48:47.757Z,2.72
2022-09-03T17:51:45.690Z,6.05
2022-09-03T17:54:47.658Z,2.75
2022-09-03T17:57:39.684Z,2.05
2022-09-03T18:00:13.746Z,2.10
2022-09-03T18:03:08.698Z,2.35
2022-09-03T18:05:50.619Z,3.00
2022-09-03T18:08:42.682Z,3.50
2022-09-03T18:11:33.928Z,3.95
2022-09-03T18:14:33.684Z,3.35
2022-09-03T18:17:34.702Z,2.40
2022-09-03T18:23:57.708Z,2.70
2022-09-03T18:27:11.529Z,5.63
2022-09-03T18:30:22.732Z,5.55
2022-09-03T18:33:34.674Z,4.35
2022-09-03T18:36:40.716Z,2.70
2022-09-03T18:39:48.764Z,1.95
2022-09-03T18:42:55.708Z,1.70
2022-09-03T18:49:57.703Z,1.85
2022-09-03T18:53:01.699Z,2.35
2022-09-03T18:56:12.709Z,1.73
2022-09-03T18:59:27.709Z,2.22
2022-09-03T19:02:41.455Z,2.53
2022-09-03T19:06:05.694Z,2.30
2022-09-03T19:09:21.709Z,3.05
2022-09-03T19:12:38.696Z,2.10
2022-09-03T19:15:56.729Z,2.33
2022-09-03T19:19:15.206Z,2.80
2022-09-03T19:22:26.731Z,2.45
2022-09-03T19:25:45.698Z,2.65
2022-09-03T19:28:54.732Z,2.50
2022-09-03T19:32:19.732Z,1.58
2022-09-03T19:35:42.731Z,2.70
2022-09-03T19:39:21.827Z,2.67
2022-09-03T19:42:46.699Z,2.13
2022-09-03T19:49:35.276Z,2.65
2022-09-03T19:53:15.735Z,2.33
2022-09-03T19:56:23.301Z,3.70
2022-09-03T19:59:36.709Z,2.65
2022-09-03T20:02:29.808Z,3.30
2022-09-03T20:05:46.719Z,3.00
2022-09-03T20:08:42.652Z,2.65
2022-09-03T20:11:33.724Z,2.58
2022-09-03T20:14:13.923Z,2.70
2022-09-03T20:17:26.748Z,2.55
2022-09-03T20:20:31.758Z,2.13
2022-09-03T20:23:19.734Z,2.05
2022-09-03T20:26:32.832Z,2.00
2022-09-03T20:29:47.745Z,2.53
2022-09-03T20:32:22.123Z,1.80
2022-09-03T20:35:17.733Z,2.30
2022-09-03T20:38:19.762Z,1.55
2022-09-03T20:41:06.741Z,3.33
2022-09-03T20:44:14.736Z,2.88
2022-09-03T20:47:14.743Z,2.17
2022-09-03T20:50:10.763Z,2.42
2022-09-03T20:53:01.993Z,2.00
2022-09-03T20:55:50.774Z,2.00
2022-09-03T20:58:42.759Z,1.88
2022-09-03T21:01:34.821Z,2.05
2022-09-03T21:04:39.745Z,2.00
2022-09-03T21:07:49.758Z,2.28
2022-09-03T21:10:23.866Z,2.65
2022-09-03T21:13:19.749Z,1.85
2022-09-03T21:16:26.763Z,2.88
2022-09-03T21:19:40.006Z,2.00
2022-09-03T21:22:31.786Z,2.63
2022-09-03T21:25:14.829Z,2.63
2022-09-03T21:28:01.766Z,2.75
2022-09-03T21:30:46.428Z,2.92
2022-09-03T21:33:33.778Z,2.50
2022-09-03T21:36:17.561Z,2.38
2022-09-03T21:39:05.784Z,2.05
2022-09-03T21:41:52.977Z,1.50
2022-09-03T21:44:54.802Z,2.30
2022-09-03T21:47:35.834Z,2.47
2022-09-03T21:50:32.792Z,2.63
2022-09-03T21:53:24.454Z,2.15
2022-09-03T21:56:22.772Z,2.03
2022-09-03T21:59:11.373Z,2.22
2022-09-03T22:02:09.817Z,2.13
2022-09-03T22:04:44.843Z,3.27
2022-09-03T22:07:53.376Z,2.83
2022-09-03T22:10:57.799Z,2.13
2022-09-03T22:13:46.888Z,2.47
2022-09-03T22:16:59.800Z,2.25
2022-09-03T22:19:40.845Z,2.17
2022-09-03T22:22:38.764Z,1.95
2022-09-03T22:25:31.764Z,2.13
2022-09-03T22:28:21.533Z,2.50
2022-09-03T22:31:25.787Z,2.08
2022-09-03T22:34:23.922Z,3.08
2022-09-03T22:37:15.833Z,3.00
2022-09-03T22:39:49.957Z,4.00
2022-09-03T22:42:40.816Z,5.72
2022-09-03T22:45:34.846Z,3.97
2022-09-03T22:51:21.959Z,2.42
2022-09-03T22:54:40.764Z,2.20
2022-09-03T22:57:29.796Z,2.53
2022-09-03T23:00:13.124Z,2.28
2022-09-03T23:03:20.859Z,2.80
2022-09-03T23:06:02.866Z,2.70
2022-09-03T23:09:01.814Z,2.90
2022-09-03T23:11:59.880Z,3.03
2022-09-03T23:14:57.795Z,2.92
2022-09-03T23:20:32.771Z,2.40
2022-09-03T23:23:42.813Z,2.50
2022-09-03T23:26:43.780Z,2.60
2022-09-03T23:29:32.791Z,2.40
2022-09-03T23:32:09.413Z,1.90
2022-09-03T23:34:56.804Z,2.20
2022-09-03T23:37:34.086Z,2.05
2022-09-03T23:43:00.917Z,2.00
2022-09-03T23:45:41.849Z,2.20
2022-09-03T23:48:25.075Z,2.30
2022-09-03T23:51:08.816Z,2.20
2022-09-03T23:54:08.809Z,2.20
2022-09-03T23:57:02.818Z,1.50
2022-09-03T23:59:56.791Z,1.70
